Time;durP1;ratioP1;P1;durP2;ratioP2;P2;SDS_P1;SDS_P2;PMS_P1;PMS_P2;Temp;Humidity;BMP_temperature;BMP_pressure;BME280_temperature;BME280_humidity;BME280_pressure;Samples;Min_cycle;Max_cycle;Signal;HPM_P1;HPM_P2
2022/06/26 00:00:19;;;;;;;;;1.00;1.00;;;;;16.44;68.01;100695.59;5073257;27;45530;-63
2022/06/26 00:02:46;;;;;;;;;1.33;1.00;;;;;16.43;68.21;100693.88;5075042;27;45557;-65
2022/06/26 00:05:12;;;;;;;;;2.00;2.00;;;;;16.44;68.84;100703.66;5075191;27;46847;-66
2022/06/26 00:07:38;;;;;;;;;5.00;2.33;;;;;16.41;69.16;100709.28;5077895;27;45350;-63
2022/06/26 00:10:04;;;;;;;;;1.00;1.00;;;;;16.34;68.48;100702.66;5079441;27;46762;-63
2022/06/26 00:12:29;;;;;;;;;15.00;14.67;;;;;16.37;68.15;100702.41;5076089;27;45970;-64
2022/06/26 00:14:54;;;;;;;;;2.00;2.00;;;;;16.33;68.82;100706.31;5076345;27;45520;-63
2022/06/26 00:17:20;;;;;;;;;3.33;2.00;;;;;16.34;69.40;100701.81;5091165;27;45676;-63
2022/06/26 00:19:45;;;;;;;;;3.33;2.67;;;;;16.34;68.58;100705.34;5074625;27;45394;-63
2022/06/26 00:22:11;;;;;;;;;1.33;1.00;;;;;16.35;68.95;100715.09;5075702;27;45561;-62
2022/06/26 00:24:37;;;;;;;;;1.00;1.00;;;;;16.34;68.45;100712.53;5077318;27;45320;-64
2022/06/26 00:27:06;;;;;;;;;1.00;1.00;;;;;16.29;69.29;100704.00;5074151;27;45748;-62
2022/06/26 00:29:35;;;;;;;;;2.33;1.67;;;;;16.29;68.09;100694.13;5076392;27;46327;-64
2022/06/26 00:32:01;;;;;;;;;3.33;2.00;;;;;16.31;69.04;100702.91;5075474;27;45488;-63
2022/06/26 00:34:27;;;;;;;;;1.00;1.00;;;;;16.30;68.73;100695.84;5073158;27;45568;-63
2022/06/26 00:36:53;;;;;;;;;2.00;2.00;;;;;16.24;69.71;100690.94;5075245;27;45484;-63
2022/06/26 00:39:18;;;;;;;;;3.33;2.33;;;;;16.26;69.36;100688.13;5080384;27;47499;-63
2022/06/26 00:41:44;;;;;;;;;3.00;1.33;;;;;16.24;69.32;100696.28;5073248;27;45630;-63
2022/06/26 00:44:17;;;;;;;;;2.00;1.00;;;;;16.23;69.63;100703.50;5073436;27;47324;-63
2022/06/26 00:46:44;;;;;;;;;1.00;1.00;;;;;16.24;69.33;100693.59;5073440;27;47053;-63
2022/06/26 00:49:10;;;;;;;;;3.67;2.00;;;;;16.20;68.97;100701.06;5076493;27;45511;-63
2022/06/26 00:51:43;;;;;;;;;3.00;2.00;;;;;16.17;69.55;100697.75;5073539;27;45464;-66
2022/06/26 00:54:09;;;;;;;;;2.00;2.00;;;;;16.14;69.42;100696.16;5075463;27;45799;-63
2022/06/26 00:56:36;;;;;;;;;4.00;2.00;;;;;16.15;69.29;100707.75;5075739;27;45519;-63
2022/06/26 00:59:02;;;;;;;;;2.00;2.00;;;;;16.14;69.41;100714.94;5073966;27;46732;-64
2022/06/26 01:01:28;;;;;;;;;6.00;1.00;;;;;16.15;69.27;100719.34;5074512;27;45243;-63
2022/06/26 01:03:53;;;;;;;;;1.67;1.67;;;;;16.16;69.10;100725.56;5075130;27;45440;-64
2022/06/26 01:06:19;;;;;;;;;3.00;3.00;;;;;16.13;69.35;100721.28;5076152;27;45615;-63
2022/06/26 01:08:46;;;;;;;;;2.67;1.67;;;;;16.13;69.49;100710.53;5073837;27;46167;-64
2022/06/26 01:11:20;;;;;;;;;2.00;2.00;;;;;16.09;69.23;100719.81;5076145;27;45231;-63
2022/06/26 01:13:51;;;;;;;;;3.00;2.00;;;;;16.07;69.39;100704.81;5066631;27;45457;-63
2022/06/26 01:16:19;;;;;;;;;4.33;2.00;;;;;16.06;69.07;100708.47;5066943;27;45352;-62
2022/06/26 01:18:48;;;;;;;;;2.67;2.33;;;;;16.11;69.34;100727.72;5074664;27;45524;-63
2022/06/26 01:21:15;;;;;;;;;2.67;2.67;;;;;16.11;69.70;100731.28;5077245;27;46396;-63
2022/06/26 01:23:40;;;;;;;;;4.33;2.00;;;;;16.11;69.32;100733.09;5075747;28;45467;-65
2022/06/26 01:26:06;;;;;;;;;1.67;1.67;;;;;16.08;69.40;100727.97;5082049;27;45569;-64
2022/06/26 01:28:32;;;;;;;;;3.00;3.00;;;;;16.04;69.27;100719.31;5076250;27;45517;-63
2022/06/26 01:30:58;;;;;;;;;3.00;2.00;;;;;16.03;69.42;100724.81;5073912;27;45523;-64
2022/06/26 01:33:23;;;;;;;;;2.00;2.00;;;;;16.10;69.39;100726.03;5074950;27;45456;-63
2022/06/26 01:35:49;;;;;;;;;2.00;2.00;;;;;16.08;68.91;100725.28;5075055;27;45591;-63
2022/06/26 01:38:22;;;;;;;;;2.33;2.33;;;;;16.06;69.47;100730.78;5075158;27;47001;-62
2022/06/26 01:40:51;;;;;;;;;2.00;2.00;;;;;16.07;69.38;100737.00;5075793;27;45368;-63
2022/06/26 01:43:18;;;;;;;;;4.00;3.00;;;;;16.04;69.38;100734.56;5073441;27;45219;-63
2022/06/26 01:45:49;;;;;;;;;1.67;1.67;;;;;16.01;70.02;100737.44;5074004;27;46094;-63
2022/06/26 01:48:15;;;;;;;;;4.00;2.67;;;;;15.98;69.38;100737.69;5074363;27;47420;-63
2022/06/26 01:50:42;;;;;;;;;3.00;2.00;;;;;15.98;70.05;100745.75;5074516;27;45500;-62
2022/06/26 01:53:07;;;;;;;;;5.33;3.00;;;;;15.99;69.79;100760.84;5071623;27;45484;-63
2022/06/26 01:55:33;;;;;;;;;3.00;3.00;;;;;15.98;69.49;100760.00;5075743;27;45666;-64
2022/06/26 01:58:02;;;;;;;;;2.00;2.00;;;;;15.97;69.50;100754.75;5074301;27;45543;-63
2022/06/26 02:00:33;;;;;;;;;3.00;3.00;;;;;15.99;69.06;100740.25;5072676;27;45323;-62
2022/06/26 02:02:59;;;;;;;;;1.33;1.33;;;;;15.95;69.65;100744.16;5075314;27;45462;-62
2022/06/26 02:05:25;;;;;;;;;4.00;2.00;;;;;15.92;69.64;100747.94;5070444;28;45537;-63
2022/06/26 02:07:51;;;;;;;;;2.00;2.00;;;;;15.89;69.86;100750.84;5074742;27;45495;-62
2022/06/26 02:15:47;;;;;;;;;4.33;3.00;;;;;15.82;69.99;100746.91;5073109;27;45371;-63
2022/06/26 02:18:13;;;;;;;;;2.00;2.00;;;;;15.81;69.63;100736.31;5073400;27;45673;-63
2022/06/26 02:20:39;;;;;;;;;2.00;2.00;;;;;15.83;70.16;100745.09;5073180;27;45698;-64
2022/06/26 02:23:06;;;;;;;;;2.67;2.67;;;;;15.81;69.81;100752.38;5074396;27;45336;-63
2022/06/26 02:25:31;;;;;;;;;4.00;3.00;;;;;15.81;70.02;100758.59;5070710;27;45254;-63
2022/06/26 02:27:57;;;;;;;;;1.33;1.33;;;;;15.81;69.53;100742.50;5071674;27;45532;-63
2022/06/26 02:30:22;;;;;;;;;7.33;3.00;;;;;15.79;69.68;100752.50;5073324;27;47713;-62
2022/06/26 02:32:48;;;;;;;;;3.00;2.00;;;;;15.79;69.30;100757.88;5074337;27;45333;-63
2022/06/26 02:35:13;;;;;;;;;4.67;3.00;;;;;15.80;69.52;100754.22;5074631;27;45401;-63
2022/06/26 02:37:38;;;;;;;;;1.33;1.33;;;;;15.82;69.51;100746.06;5072543;27;45963;-63
2022/06/26 02:40:06;;;;;;;;;2.00;2.00;;;;;15.88;69.57;100743.75;5089901;27;45448;-63
2022/06/26 02:42:31;;;;;;;;;2.67;2.33;;;;;15.91;69.51;100742.69;5072010;27;45699;-63
2022/06/26 02:44:57;;;;;;;;;1.00;1.00;;;;;15.95;69.16;100745.97;5072406;27;46055;-62
2022/06/26 02:47:22;;;;;;;;;3.67;3.67;;;;;15.96;69.02;100748.53;5073806;27;45701;-63
2022/06/26 02:49:48;;;;;;;;;1.33;1.33;;;;;15.96;69.43;100750.38;5073160;27;45480;-63
2022/06/26 02:52:13;;;;;;;;;2.00;2.00;;;;;15.92;69.24;100750.63;5072485;27;45393;-63
2022/06/26 02:54:39;;;;;;;;;3.00;3.00;;;;;15.93;69.46;100746.09;5076900;27;45310;-64
2022/06/26 02:57:04;;;;;;;;;2.00;2.00;;;;;15.97;69.34;100742.19;5075296;27;46374;-63
2022/06/26 02:59:29;;;;;;;;;3.00;2.00;;;;;15.99;69.33;100752.81;5076462;27;45384;-63
2022/06/26 03:01:57;;;;;;;;;4.00;4.00;;;;;15.98;69.23;100761.84;5076166;27;45491;-63
2022/06/26 03:04:23;;;;;;;;;2.67;2.67;;;;;15.98;68.68;100756.47;5059748;28;45294;-63
2022/06/26 03:06:48;;;;;;;;;3.00;2.33;;;;;15.99;68.98;100758.19;5070564;27;45368;-63
2022/06/26 03:09:14;;;;;;;;;2.00;2.00;;;;;16.01;68.63;100749.03;5078702;27;45655;-62
2022/06/26 03:11:41;;;;;;;;;2.33;2.33;;;;;16.00;69.05;100755.38;5081076;27;45313;-63
2022/06/26 03:14:07;;;;;;;;;2.00;2.00;;;;;15.97;68.51;100757.44;5080569;27;45361;-63
2022/06/26 03:16:33;;;;;;;;;1.33;1.00;;;;;15.99;68.25;100764.41;5076008;27;45388;-63
2022/06/26 03:18:59;;;;;;;;;4.33;3.33;;;;;15.96;68.98;100761.97;5076475;27;45467;-64
2022/06/26 03:21:24;;;;;;;;;2.00;2.00;;;;;15.96;68.54;100766.47;5077831;27;45512;-63
2022/06/26 03:24:02;;;;;;;;;3.00;3.00;;;;;15.91;68.42;100764.13;5080621;27;45503;-64
2022/06/26 03:26:33;;;;;;;;;3.00;3.00;;;;;15.88;68.74;100769.72;5077175;27;47153;-63
2022/06/26 03:29:00;;;;;;;;;4.00;3.00;;;;;15.84;68.41;100766.41;5074468;27;45295;-64
2022/06/26 03:31:26;;;;;;;;;2.00;2.00;;;;;15.85;68.75;100773.50;5076567;27;45353;-64
2022/06/26 03:33:52;;;;;;;;;6.33;3.67;;;;;15.84;68.76;100771.78;5076770;27;45578;-63
2022/06/26 03:36:17;;;;;;;;;2.00;2.00;;;;;15.84;68.14;100769.09;5074630;27;45453;-63
2022/06/26 03:38:43;;;;;;;;;2.00;2.00;;;;;15.81;68.49;100774.69;5077916;27;45371;-63
2022/06/26 03:41:09;;;;;;;;;4.33;3.00;;;;;15.83;68.92;100771.91;5076951;27;45333;-62
2022/06/26 03:43:35;;;;;;;;;2.00;2.00;;;;;15.83;67.93;100771.91;5073311;27;45571;-62
2022/06/26 03:46:00;;;;;;;;;2.33;2.33;;;;;15.85;68.47;100776.16;5075794;27;45518;-63
2022/06/26 03:48:26;;;;;;;;;1.33;1.33;;;;;15.84;67.98;100777.16;5074232;27;45270;-63
2022/06/26 03:50:51;;;;;;;;;2.33;2.00;;;;;15.85;67.96;100769.94;5076361;27;45425;-62
2022/06/26 03:53:17;;;;;;;;;3.00;3.00;;;;;15.86;67.87;100767.16;5075484;27;45612;-61
2022/06/26 03:55:43;;;;;;;;;5.33;3.00;;;;;15.87;67.79;100768.00;5078008;27;45449;-63
2022/06/26 03:58:08;;;;;;;;;2.00;2.00;;;;;15.83;67.86;100756.66;5076120;27;45485;-64
2022/06/26 04:00:34;;;;;;;;;5.00;2.33;;;;;15.86;67.52;100761.78;5077000;27;45843;-63
2022/06/26 04:03:04;;;;;;;;;2.67;2.67;;;;;15.92;67.59;100777.44;5077050;27;45615;-63
2022/06/26 04:05:31;;;;;;;;;1.67;1.67;;;;;15.88;67.64;100770.56;5075824;27;46391;-64
2022/06/26 04:07:56;;;;;;;;;6.00;2.67;;;;;15.96;67.02;100785.25;5076592;27;45512;-63
2022/06/26 04:10:22;;;;;;;;;3.67;2.00;;;;;15.97;67.13;100792.31;5077189;27;45372;-63
2022/06/26 04:12:47;;;;;;;;;2.67;2.67;;;;;15.99;67.08;100807.31;5076807;27;45782;-65
2022/06/26 04:15:13;;;;;;;;;4.00;2.67;;;;;15.98;66.65;100794.88;5074509;27;46439;-63
2022/06/26 04:17:38;;;;;;;;;3.00;3.00;;;;;15.98;66.29;100802.06;5072864;27;45224;-63
2022/06/26 04:20:04;;;;;;;;;3.00;3.00;;;;;16.04;65.96;100809.69;5074590;27;45347;-62
2022/06/26 04:22:30;;;;;;;;;5.33;3.00;;;;;16.06;66.46;100810.41;5073493;27;45483;-63
2022/06/26 04:24:55;;;;;;;;;3.33;2.00;;;;;16.07;66.25;100812.97;5073205;27;45301;-63
2022/06/26 04:27:20;;;;;;;;;3.00;2.00;;;;;16.09;65.75;100815.53;5075394;27;45529;-63
2022/06/26 04:29:46;;;;;;;;;2.00;2.00;;;;;16.12;65.92;100820.66;5076988;27;45231;-63
2022/06/26 04:32:12;;;;;;;;;1.33;1.33;;;;;16.12;65.39;100826.03;5076391;27;45334;-63
2022/06/26 04:34:37;;;;;;;;;2.00;2.00;;;;;16.13;65.44;100833.09;5073939;27;45531;-63
2022/06/26 04:37:04;;;;;;;;;3.00;2.00;;;;;16.15;64.69;100824.00;5076501;27;45425;-63
2022/06/26 04:39:29;;;;;;;;;1.00;1.00;;;;;16.18;64.76;100828.25;5075618;27;45484;-63
2022/06/26 04:41:55;;;;;;;;;3.33;2.00;;;;;16.20;64.18;100829.00;5070261;27;45548;-62
2022/06/26 04:44:20;;;;;;;;;2.00;2.00;;;;;16.25;64.38;100828.63;5075213;27;45702;-63
2022/06/26 04:46:49;;;;;;;;;4.00;3.00;;;;;16.24;64.03;100830.47;5076225;27;45482;-62
2022/06/26 04:49:14;;;;;;;;;2.67;2.67;;;;;16.27;64.07;100829.38;5075426;27;45301;-65
2022/06/26 04:51:40;;;;;;;;;1.00;1.00;;;;;16.31;63.28;100826.38;5076917;27;45533;-63
2022/06/26 04:54:08;;;;;;;;;3.00;3.00;;;;;16.36;63.21;100840.28;5074938;27;46061;-62
2022/06/26 04:56:35;;;;;;;;;1.33;1.33;;;;;16.40;63.57;100844.44;5075873;27;45376;-66
2022/06/26 04:59:01;;;;;;;;;2.00;2.00;;;;;16.43;62.91;100846.91;5075996;27;45507;-63
2022/06/26 05:01:27;;;;;;;;;2.00;2.00;;;;;16.45;62.44;100852.16;5075147;27;45445;-62
2022/06/26 05:03:53;;;;;;;;;2.00;2.00;;;;;16.42;62.16;100847.88;5074982;27;45529;-63
2022/06/26 05:06:19;;;;;;;;;2.00;2.00;;;;;16.48;62.82;100849.22;5074088;27;45302;-63
2022/06/26 05:08:45;;;;;;;;;2.00;2.00;;;;;16.57;62.45;100847.66;5074938;27;45170;-63
2022/06/26 05:11:11;;;;;;;;;3.00;2.00;;;;;16.58;61.92;100849.38;5074277;27;45327;-63
2022/06/26 05:13:36;;;;;;;;;5.00;2.00;;;;;16.65;61.82;100853.28;5072299;27;46274;-62
2022/06/26 05:16:02;;;;;;;;;1.00;1.00;;;;;16.69;61.82;100844.94;5093078;27;45292;-63
2022/06/26 05:18:27;;;;;;;;;4.00;2.00;;;;;16.72;61.64;100851.88;5071721;27;45591;-63
2022/06/26 05:20:53;;;;;;;;;1.00;1.00;;;;;16.76;61.81;100858.72;5074242;27;45518;-62
2022/06/26 05:23:19;;;;;;;;;3.33;2.00;;;;;16.81;61.40;100845.81;5074384;27;45878;-63
2022/06/26 05:25:45;;;;;;;;;3.67;2.33;;;;;16.79;61.35;100856.63;5074202;27;45550;-62
2022/06/26 05:28:11;;;;;;;;;2.67;2.67;;;;;16.74;61.43;100849.94;5072159;27;45467;-64
2022/06/26 05:30:36;;;;;;;;;1.00;1.00;;;;;16.75;61.70;100838.22;5074618;27;45884;-64
2022/06/26 05:33:02;;;;;;;;;3.67;3.00;;;;;16.81;62.70;100856.56;5085324;27;48120;-62
2022/06/26 05:35:29;;;;;;;;;3.00;2.00;;;;;16.87;61.14;100848.00;5076402;27;45319;-63
2022/06/26 05:37:54;;;;;;;;;3.67;2.33;;;;;16.88;60.48;100847.03;5072661;27;45495;-62
2022/06/26 05:40:20;;;;;;;;;3.33;3.00;;;;;16.92;61.19;100855.69;5076625;27;45353;-62
2022/06/26 05:42:45;;;;;;;;;6.67;1.67;;;;;17.00;60.97;100862.19;5075019;27;46148;-62
2022/06/26 05:45:11;;;;;;;;;3.00;2.00;;;;;17.01;59.78;100855.81;5071136;27;45413;-62
2022/06/26 05:47:37;;;;;;;;;3.00;3.00;;;;;17.04;60.21;100857.41;5074982;27;45169;-63
2022/06/26 05:50:03;;;;;;;;;2.00;2.00;;;;;17.13;60.07;100869.28;5072575;27;45588;-63
2022/06/26 05:52:28;;;;;;;;;2.33;1.00;;;;;17.21;59.59;100864.16;5072435;27;45788;-62
2022/06/26 05:54:53;;;;;;;;;1.67;1.67;;;;;17.26;59.21;100857.44;5073787;27;45387;-64
2022/06/26 05:57:19;;;;;;;;;4.00;2.00;;;;;17.30;59.16;100858.88;5076551;28;45450;-63
2022/06/26 05:59:46;;;;;;;;;2.33;2.00;;;;;17.34;58.44;100856.84;5076099;27;45532;-61
2022/06/26 06:02:12;;;;;;;;;3.00;3.00;;;;;17.38;59.32;100866.34;5076581;27;46573;-62
2022/06/26 06:04:37;;;;;;;;;2.00;2.00;;;;;17.41;58.65;100860.72;5072916;27;45553;-63
2022/06/26 06:07:03;;;;;;;;;2.00;2.00;;;;;17.46;58.50;100863.91;5072985;27;45500;-63
2022/06/26 06:09:29;;;;;;;;;3.00;1.33;;;;;17.53;58.22;100870.50;5080323;27;45393;-64
2022/06/26 06:11:54;;;;;;;;;1.67;1.67;;;;;17.57;58.47;100871.94;5089136;27;45233;-64
2022/06/26 06:14:19;;;;;;;;;2.00;2.00;;;;;17.52;56.84;100868.78;5073967;27;45288;-60
2022/06/26 06:16:45;;;;;;;;;2.00;2.00;;;;;17.43;57.34;100869.50;5077128;27;45361;-59
2022/06/26 06:19:10;;;;;;;;;2.00;2.00;;;;;17.47;56.74;100887.13;5072074;27;45384;-64
2022/06/26 06:21:35;;;;;;;;;1.00;1.00;;;;;17.38;56.95;100869.91;5075825;27;46206;-62
2022/06/26 06:24:01;;;;;;;;;1.00;1.00;;;;;17.37;55.86;100880.78;5085591;27;46782;-64
2022/06/26 06:26:26;;;;;;;;;1.00;1.00;;;;;17.30;56.66;100876.84;5074226;27;45291;-67
2022/06/26 06:28:52;;;;;;;;;3.00;1.00;;;;;17.36;57.45;100887.13;5074104;27;45228;-64
2022/06/26 06:31:17;;;;;;;;;1.00;1.00;;;;;17.43;57.33;100885.66;5075219;27;46206;-64
2022/06/26 06:33:42;;;;;;;;;4.00;1.00;;;;;17.43;55.78;100884.78;5076240;27;45223;-60
2022/06/26 06:36:08;;;;;;;;;1.00;1.00;;;;;17.49;57.04;100890.53;5076149;27;45842;-63
2022/06/26 06:38:34;;;;;;;;;1.00;1.00;;;;;17.55;56.27;100895.41;5076171;27;45355;-68
2022/06/26 06:40:59;;;;;;;;;1.00;1.00;;;;;17.50;55.71;100886.88;5071848;28;46341;-63
2022/06/26 06:43:25;;;;;;;;;2.00;1.00;;;;;17.56;55.74;100891.75;5087717;27;45440;-60
2022/06/26 06:45:50;;;;;;;;;1.67;1.67;;;;;17.58;55.96;100895.19;5077132;27;45586;-59
2022/06/26 06:48:16;;;;;;;;;1.00;1.00;;;;;17.61;55.13;100905.69;5091130;27;45389;-60
2022/06/26 06:50:41;;;;;;;;;2.33;1.67;;;;;17.61;56.02;100894.94;5086398;27;46802;-62
2022/06/26 06:53:07;;;;;;;;;4.00;1.00;;;;;17.71;56.33;100904.97;5076322;27;45295;-61
2022/06/26 06:55:33;;;;;;;;;3.00;1.33;;;;;17.74;55.34;100907.44;5076250;27;45334;-60
2022/06/26 06:57:58;;;;;;;;;2.00;2.00;;;;;17.74;55.42;100899.38;5075356;27;45511;-60
2022/06/26 07:00:24;;;;;;;;;2.00;2.00;;;;;17.81;54.76;100905.94;5108829;27;47222;-62
2022/06/26 07:02:49;;;;;;;;;1.00;1.00;;;;;17.85;54.52;100908.28;5074547;27;45442;-61
2022/06/26 07:05:19;;;;;;;;;1.00;1.00;;;;;17.89;54.62;100909.72;5075420;27;45505;-61
2022/06/26 07:07:44;;;;;;;;;0.00;0.00;;;;;17.89;54.19;100906.19;5076485;28;45471;-61
2022/06/26 07:10:10;;;;;;;;;1.67;1.67;;;;;17.83;54.50;100920.13;5073868;27;47339;-62
2022/06/26 07:12:36;;;;;;;;;4.00;1.67;;;;;17.79;53.61;100919.53;5075125;27;45507;-61
2022/06/26 07:15:02;;;;;;;;;1.00;1.00;;;;;17.80;54.07;100921.22;5076286;27;45345;-61
2022/06/26 07:17:28;;;;;;;;;2.33;1.00;;;;;17.77;51.89;100931.38;5108732;27;45333;-63
2022/06/26 07:19:53;;;;;;;;;0.67;0.67;;;;;17.71;52.12;100932.75;5073559;27;46393;-60
2022/06/26 07:22:19;;;;;;;;;3.00;1.00;;;;;17.75;52.88;100939.59;5073352;27;45419;-62
2022/06/26 07:24:44;;;;;;;;;1.00;1.00;;;;;17.82;51.90;100939.94;5074156;27;45310;-61
2022/06/26 07:27:09;;;;;;;;;0.00;0.00;;;;;17.83;51.67;100930.88;5074755;27;45623;-63
2022/06/26 07:29:35;;;;;;;;;3.00;2.00;;;;;17.86;50.99;100941.41;5075584;27;47417;-61
2022/06/26 07:32:01;;;;;;;;;1.67;0.67;;;;;17.88;51.72;100942.13;5074651;27;45580;-61
2022/06/26 07:34:26;;;;;;;;;2.00;1.00;;;;;18.03;52.10;100948.97;5089400;27;45476;-62
2022/06/26 07:36:52;;;;;;;;;1.00;1.00;;;;;18.07;50.97;100955.78;5090721;27;45649;-62
2022/06/26 07:39:20;;;;;;;;;1.00;1.00;;;;;18.15;51.07;100958.72;5083946;27;46268;-62
2022/06/26 07:41:48;;;;;;;;;3.00;1.00;;;;;18.25;49.33;100946.22;5081988;27;45499;-61
2022/06/26 07:44:14;;;;;;;;;1.00;1.00;;;;;18.21;49.16;100957.34;5078661;27;45306;-61
2022/06/26 07:46:40;;;;;;;;;3.33;1.00;;;;;18.30;49.93;100961.13;5089682;27;45611;-62
2022/06/26 07:49:06;;;;;;;;;1.00;1.00;;;;;18.40;49.44;100945.94;5078194;27;47676;-61
2022/06/26 07:51:33;;;;;;;;;1.00;1.00;;;;;18.52;50.29;100944.91;5094915;27;45438;-59
2022/06/26 07:53:59;;;;;;;;;5.00;1.00;;;;;18.59;49.26;100946.09;5096695;27;45810;-60
2022/06/26 07:56:25;;;;;;;;;3.00;1.67;;;;;18.60;49.65;100945.09;5087607;27;45598;-60
2022/06/26 07:58:55;;;;;;;;;3.00;1.00;;;;;18.73;50.31;100943.13;5083961;27;45445;-58
2022/06/26 08:01:21;;;;;;;;;2.33;1.00;;;;;18.76;48.32;100948.28;5090422;27;45300;-59
2022/06/26 08:03:47;;;;;;;;;2.00;2.00;;;;;18.85;48.97;100946.63;5068427;27;45354;-62
2022/06/26 08:06:12;;;;;;;;;4.00;1.00;;;;;18.98;48.93;100941.03;5079349;27;45651;-60
2022/06/26 08:08:38;;;;;;;;;1.00;1.00;;;;;19.07;49.30;100940.25;5093927;27;46364;-60
2022/06/26 08:11:04;;;;;;;;;1.67;1.67;;;;;19.22;48.12;100938.06;5111514;27;45378;-60
2022/06/26 08:13:30;;;;;;;;;2.67;1.00;;;;;19.33;47.76;100946.94;5084880;27;45769;-60
2022/06/26 08:15:55;;;;;;;;;0.67;0.00;;;;;19.43;46.18;100945.16;5077686;27;45480;-60
2022/06/26 08:18:21;;;;;;;;;2.67;1.00;;;;;19.54;45.04;100935.28;5078056;27;45416;-60
2022/06/26 08:20:46;;;;;;;;;2.00;0.00;;;;;19.62;44.51;100940.84;5077576;27;45509;-59
2022/06/26 08:23:12;;;;;;;;;0.33;0.33;;;;;19.69;44.65;100931.25;5077635;27;45449;-61
2022/06/26 08:25:38;;;;;;;;;1.00;1.00;;;;;19.75;44.44;100936.06;5078348;28;45377;-60
2022/06/26 08:28:04;;;;;;;;;1.00;1.00;;;;;19.83;44.59;100933.56;5076834;27;46168;-59
2022/06/26 08:30:29;;;;;;;;;2.67;0.00;;;;;19.95;44.05;100937.00;5076661;27;45566;-60
2022/06/26 08:32:58;;;;;;;;;0.00;0.00;;;;;20.13;43.74;100935.34;5074406;27;45556;-63
2022/06/26 08:35:24;;;;;;;;;0.00;0.00;;;;;20.21;43.67;100927.41;5076787;27;45350;-61
2022/06/26 08:37:49;;;;;;;;;2.67;1.00;;;;;20.34;44.49;100921.72;5077888;28;46026;-62
2022/06/26 08:40:16;;;;;;;;;1.00;1.00;;;;;20.43;42.62;100937.09;5077968;28;45428;-62
2022/06/26 08:42:42;;;;;;;;;1.00;1.00;;;;;20.51;44.95;100926.44;5078356;27;45417;-62
2022/06/26 08:45:09;;;;;;;;;0.33;0.33;;;;;20.89;43.83;100930.13;5077964;27;45552;-62
2022/06/26 08:47:41;;;;;;;;;1.00;1.00;;;;;21.08;41.05;100932.78;5077752;27;46169;-60
2022/06/26 08:50:08;;;;;;;;;1.00;1.00;;;;;21.11;41.65;100932.53;5075478;27;45307;-59
2022/06/26 08:52:34;;;;;;;;;1.00;1.00;;;;;21.07;41.30;100935.66;5076279;27;45321;-60
2022/06/26 08:55:02;;;;;;;;;3.00;1.00;;;;;21.25;42.99;100933.06;5076979;27;45571;-59
2022/06/26 08:57:28;;;;;;;;;2.00;2.00;;;;;21.53;43.21;100929.44;5077388;28;46448;-59
2022/06/26 08:59:53;;;;;;;;;1.00;1.00;;;;;21.95;42.67;100915.41;5077861;28;45407;-60
2022/06/26 09:02:19;;;;;;;;;1.00;1.00;;;;;22.28;41.39;100912.09;5077559;28;45318;-59
2022/06/26 09:04:44;;;;;;;;;1.00;1.00;;;;;22.66;40.76;100905.50;5076008;27;45303;-60
2022/06/26 09:07:10;;;;;;;;;1.50;1.00;;;;;23.06;38.48;100901.44;5077938;27;45797;-61
2022/06/26 09:09:39;;;;;;;;;0.75;0.75;;;;;23.27;36.50;100898.31;5075324;27;45324;-59
2022/06/26 09:12:06;;;;;;;;;1.00;1.00;;;;;23.38;35.61;100892.63;5077609;27;45347;-59
2022/06/26 09:14:31;;;;;;;;;1.00;1.00;;;;;23.38;36.24;100895.34;5078507;27;45701;-60
2022/06/26 09:16:58;;;;;;;;;2.75;1.00;;;;;23.41;36.16;100889.56;5076826;27;45703;-59
2022/06/26 09:19:33;;;;;;;;;1.75;1.00;;;;;23.67;36.41;100889.56;5076543;27;45697;-62
2022/06/26 09:22:17;;;;;;;;;0.75;0.75;;;;;23.92;36.26;100886.94;5075133;27;45375;-61
2022/06/26 09:24:53;;;;;;;;;1.00;1.00;;;;;23.95;36.97;100882.00;5077208;27;45364;-61
2022/06/26 09:27:21;;;;;;;;;2.25;0.75;;;;;24.04;34.81;100869.31;5071533;27;46217;-61
2022/06/26 09:29:54;;;;;;;;;0.00;0.00;;;;;24.07;32.82;100874.41;5077128;27;45328;-63
2022/06/26 09:32:22;;;;;;;;;1.80;0.80;;;;;24.12;35.55;100877.50;5077498;28;45400;-62
2022/06/26 09:34:52;;;;;;;;;1.00;1.00;;;;;24.28;34.48;100880.22;5077156;27;45357;-64
2022/06/26 09:37:19;;;;;;;;;0.75;0.75;;;;;24.56;33.56;100879.94;5076012;27;46356;-62
2022/06/26 09:39:44;;;;;;;;;0.00;0.00;;;;;24.89;32.79;100881.63;5077258;27;45447;-61
2022/06/26 09:42:22;;;;;;;;;3.00;1.00;;;;;25.09;33.58;100887.56;5073470;27;45507;-61
2022/06/26 09:44:49;;;;;;;;;1.00;1.00;;;;;25.06;34.00;100887.94;5076445;27;45391;-63
2022/06/26 09:47:30;;;;;;;;;1.25;1.25;;;;;24.91;33.92;100895.06;5077646;27;46159;-63
2022/06/26 09:50:00;;;;;;;;;1.00;1.00;;;;;24.76;32.34;100884.03;5077224;27;45342;-60
2022/06/26 09:52:28;;;;;;;;;0.75;0.75;;;;;24.49;32.61;100871.63;5077120;27;45314;-63
2022/06/26 09:54:55;;;;;;;;;1.00;1.00;;;;;24.32;34.34;100884.34;5076500;27;45501;-65
2022/06/26 09:57:21;;;;;;;;;0.75;0.75;;;;;24.20;32.47;100882.06;5077993;27;46065;-62
2022/06/26 09:59:47;;;;;;;;;2.00;2.00;;;;;24.11;34.22;100876.63;5075755;27;45333;-64
2022/06/26 10:07:53;;;;;;;;;1.00;1.00;;;;;23.98;34.35;100886.28;5056244;28;45373;-60
2022/06/26 10:10:24;;;;;;;;;1.00;1.00;;;;;24.21;35.00;100886.50;5072600;27;45558;-62
2022/06/26 10:12:55;;;;;;;;;3.00;1.75;;;;;24.58;34.88;100875.19;5106679;27;45499;-60
2022/06/26 10:15:28;;;;;;;;;2.00;2.00;;;;;24.78;35.80;100883.84;5075274;27;45492;-64
2022/06/26 10:18:12;;;;;;;;;4.25;1.75;;;;;24.92;35.73;100883.16;5075198;27;46977;-62
2022/06/26 10:20:41;;;;;;;;;1.25;1.25;;;;;25.06;35.30;100881.63;5076089;27;45290;-67
2022/06/26 10:23:06;;;;;;;;;1.50;1.50;;;;;25.03;32.43;100869.22;5075970;27;45623;-62
2022/06/26 10:25:33;;;;;;;;;1.75;1.75;;;;;24.94;34.57;100872.94;5075723;28;45310;-62
2022/06/26 10:27:59;;;;;;;;;2.75;2.00;;;;;25.08;31.76;100857.81;5076607;27;45326;-63
2022/06/26 10:30:27;;;;;;;;;1.50;1.50;;;;;25.00;33.76;100861.34;5074579;27;45437;-63
2022/06/26 10:33:19;;;;;;;;;0.75;0.75;;;;;25.17;33.02;100875.84;5072704;27;45366;-63
2022/06/26 10:35:49;;;;;;;;;2.50;0.75;;;;;25.24;32.96;100880.38;5106159;27;45591;-63
2022/06/26 10:38:33;;;;;;;;;2.00;2.00;;;;;25.06;32.60;100877.03;5076242;28;46458;-60
2022/06/26 10:44:15;;;;;;;;;1.00;1.00;;;;;24.74;33.98;100882.47;5057007;28;45239;-62
2022/06/26 10:46:46;;;;;;;;;2.00;1.25;;;;;24.50;33.25;100891.50;5074890;27;45520;-61
2022/06/26 10:49:12;;;;;;;;;1.00;1.00;;;;;24.35;33.82;100896.72;5076007;28;46334;-61
2022/06/26 10:51:43;;;;;;;;;1.50;1.50;;;;;24.20;32.08;100892.94;5075541;27;45571;-61
2022/06/26 10:54:20;;;;;;;;;1.00;1.00;;;;;23.86;34.11;100888.47;5073643;27;45432;-62
2022/06/26 10:56:46;;;;;;;;;1.00;1.00;;;;;23.66;33.06;100882.44;5073413;27;45596;-62
2022/06/26 10:59:20;;;;;;;;;2.00;0.75;;;;;23.59;34.44;100892.25;5073154;27;46907;-61
2022/06/26 11:01:46;;;;;;;;;3.00;1.00;;;;;23.55;34.50;100880.81;5075588;27;45476;-60
2022/06/26 11:04:11;;;;;;;;;1.75;0.75;;;;;23.49;35.25;100889.63;5074992;27;45527;-62
2022/06/26 11:06:41;;;;;;;;;2.00;2.00;;;;;23.52;34.67;100877.59;5072488;27;45485;-61
2022/06/26 11:09:08;;;;;;;;;3.00;3.00;;;;;23.48;36.41;100874.34;5075177;27;46943;-60
2022/06/26 11:11:34;;;;;;;;;2.00;2.00;;;;;23.44;36.10;100867.56;5076035;27;45242;-60
2022/06/26 11:14:08;;;;;;;;;5.00;4.00;;;;;23.37;36.00;100874.63;5081788;27;45749;-58
2022/06/26 11:16:38;;;;;;;;;1.00;1.00;;;;;23.39;34.76;100874.47;5077252;28;45620;-58
2022/06/26 11:19:19;;;;;;;;;2.00;2.00;;;;;23.41;36.03;100870.56;5077461;27;45544;-59
2022/06/26 11:21:44;;;;;;;;;2.00;2.00;;;;;23.37;35.51;100871.06;5079246;27;45460;-59
2022/06/26 11:24:10;;;;;;;;;2.00;2.00;;;;;23.36;35.45;100864.81;5077117;27;45789;-60
2022/06/26 11:26:35;;;;;;;;;1.25;1.25;;;;;23.54;34.40;100870.97;5079421;27;45369;-59
2022/06/26 11:29:03;;;;;;;;;1.00;1.00;;;;;23.67;34.65;100865.13;5077793;28;45591;-60
2022/06/26 11:31:32;;;;;;;;;1.00;1.00;;;;;23.63;35.04;100855.63;5079220;27;45313;-60
2022/06/26 11:34:17;;;;;;;;;2.00;2.00;;;;;23.69;34.58;100844.09;5078665;28;45422;-61
2022/06/26 11:36:57;;;;;;;;;2.00;2.00;;;;;23.63;34.64;100849.34;5079240;27;45472;-59